createdAt,value
2022-08-21T00:00:46.908Z,98710.81
2022-08-21T00:03:48.256Z,98718.72
2022-08-21T00:06:50.617Z,98707.38
2022-08-21T00:09:52.608Z,98700.44
2022-08-21T00:12:53.980Z,98708.31
2022-08-21T00:15:55.338Z,98705.72
2022-08-21T00:18:56.726Z,98703.13
2022-08-21T00:21:58.070Z,98709.13
2022-08-21T00:24:59.399Z,98705.69
2022-08-21T00:28:02.698Z,98703.16
2022-08-21T00:31:07.131Z,98702.28
2022-08-21T00:34:08.466Z,98693.53
2022-08-21T00:37:09.808Z,98689.09
2022-08-21T00:40:13.047Z,98696.06
2022-08-21T00:43:15.273Z,98689.13
2022-08-21T00:46:16.717Z,98687.50
2022-08-21T00:49:18.458Z,98684.13
2022-08-21T00:52:23.721Z,98685.03
2022-08-21T00:55:25.074Z,98682.31
2022-08-21T00:58:27.595Z,98677.00
2022-08-21T01:01:28.969Z,98676.19
2022-08-21T01:04:30.348Z,98673.66
2022-08-21T01:07:32.146Z,98676.31
2022-08-21T01:10:33.907Z,98670.28
2022-08-21T01:13:35.961Z,98675.47
2022-08-21T01:16:37.305Z,98670.28
2022-08-21T01:19:38.645Z,98665.84
2022-08-21T01:22:40.105Z,98666.75
2022-08-21T01:25:41.519Z,98666.78
2022-08-21T01:28:45.037Z,98682.53
2022-08-21T01:31:46.893Z,98671.16
2022-08-21T01:34:48.590Z,98664.22
2022-08-21T01:37:49.967Z,98665.97
2022-08-21T01:40:51.308Z,98664.25
2022-08-21T01:43:52.649Z,98667.72
2022-08-21T01:46:55.550Z,98662.47
2022-08-21T01:49:56.930Z,98666.84
2022-08-21T01:52:58.616Z,98657.19
2022-08-21T01:56:00.309Z,98654.59
2022-08-21T01:59:01.679Z,98650.25
2022-08-21T02:02:03.057Z,98654.69
2022-08-21T02:05:05.981Z,98652.16
2022-08-21T02:08:07.593Z,98653.88
2022-08-21T02:11:09.033Z,98651.28
2022-08-21T02:14:12.292Z,98650.41
2022-08-21T02:17:14.061Z,98646.06
2022-08-21T02:20:19.681Z,98644.38
2022-08-21T02:23:21.013Z,98639.16
2022-08-21T02:26:29.488Z,98638.34
2022-08-21T02:29:30.851Z,98633.06
2022-08-21T02:32:32.227Z,98636.50
2022-08-21T02:35:33.587Z,98634.81
2022-08-21T02:38:35.526Z,98639.16
2022-08-21T02:41:36.860Z,98640.09
2022-08-21T02:44:38.196Z,98637.47
2022-08-21T02:47:39.865Z,98638.34
2022-08-21T02:50:44.071Z,98630.47
2022-08-21T02:53:45.492Z,98632.19
2022-08-21T02:56:46.863Z,98628.72
2022-08-21T02:59:48.375Z,98634.88
2022-08-21T03:02:49.759Z,98630.56
2022-08-21T03:05:51.113Z,98637.53
2022-08-21T03:08:52.440Z,98632.34
2022-08-21T03:11:55.078Z,98628.88
2022-08-21T03:14:56.408Z,98618.44
2022-08-21T03:17:57.783Z,98618.41
2022-08-21T03:20:59.149Z,98623.63
2022-08-21T03:24:00.484Z,98627.13
2022-08-21T03:27:05.687Z,98625.41
2022-08-21T03:30:11.115Z,98625.44
2022-08-21T03:33:13.165Z,98628.94
2022-08-21T03:36:16.424Z,98622.81
2022-08-21T03:39:17.914Z,98623.69
2022-08-21T03:42:19.281Z,98621.06
2022-08-21T03:45:20.659Z,98621.06
2022-08-21T03:48:22.036Z,98623.69
2022-08-21T03:51:23.413Z,98612.38
2022-08-21T03:54:24.726Z,98617.63
2022-08-21T03:57:26.089Z,98621.09
2022-08-21T04:00:27.457Z,98613.25
2022-08-21T04:03:28.806Z,98618.53
2022-08-21T04:06:33.462Z,98611.59
2022-08-21T04:09:38.675Z,98624.59
2022-08-21T04:12:40.066Z,98617.59
2022-08-21T04:15:42.073Z,98622.84
2022-08-21T04:18:43.696Z,98630.69
2022-08-21T04:21:45.072Z,98634.19
2022-08-21T04:24:47.569Z,98630.72
2022-08-21T04:27:48.940Z,98639.44
2022-08-21T04:30:51.244Z,98635.94
2022-08-21T04:33:52.566Z,98637.69
2022-08-21T04:36:53.916Z,98642.91
2022-08-21T04:39:57.524Z,98648.09
2022-08-21T04:43:00.835Z,98647.25
2022-08-21T04:46:02.239Z,98643.72
2022-08-21T04:49:03.610Z,98646.38
2022-08-21T04:52:05.394Z,98644.66
2022-08-21T04:55:06.879Z,98649.91
2022-08-21T04:58:08.734Z,98650.75
2022-08-21T05:01:12.496Z,98652.50
2022-08-21T05:04:14.756Z,98652.47
2022-08-21T05:07:17.382Z,98657.72
2022-08-21T05:10:38.730Z,98656.84
2022-08-21T05:13:42.247Z,98656.84
2022-08-21T05:16:44.838Z,98658.59
2022-08-21T05:19:46.352Z,98662.06
2022-08-21T05:22:47.712Z,98661.19
2022-08-21T05:25:49.339Z,98665.50
2022-08-21T05:28:50.688Z,98659.41
2022-08-21T05:31:52.391Z,98659.38
2022-08-21T05:34:54.523Z,98661.09
2022-08-21T05:37:55.909Z,98662.81
2022-08-21T05:40:57.384Z,98664.53
2022-08-21T05:43:58.865Z,98654.03
2022-08-21T05:47:18.285Z,98657.44
2022-08-21T05:50:20.291Z,98653.97
2022-08-21T05:53:21.853Z,98655.66
2022-08-21T05:56:23.274Z,98660.84
2022-08-21T05:59:24.703Z,98653.84
2022-08-21T06:02:26.118Z,98649.44
2022-08-21T06:05:36.854Z,98650.22
2022-08-21T06:08:38.994Z,98648.41
2022-08-21T06:11:40.460Z,98644.88
2022-08-21T06:14:42.006Z,98650.91
2022-08-21T06:17:43.377Z,98647.31
2022-08-21T06:20:45.733Z,98649.81
2022-08-21T06:23:47.137Z,98638.38
2022-08-21T06:26:48.704Z,98651.41
2022-08-21T06:29:50.054Z,98653.13
2022-08-21T06:32:51.475Z,98649.66
2022-08-21T06:35:52.923Z,98654.81
2022-08-21T06:38:54.296Z,98647.72
2022-08-21T06:41:58.697Z,98644.94
2022-08-21T06:45:00.626Z,98643.97
2022-08-21T06:48:02.402Z,98641.16
2022-08-21T06:51:03.761Z,98646.25
2022-08-21T06:54:05.095Z,98642.59
2022-08-21T06:57:06.438Z,98649.41
2022-08-21T07:00:08.880Z,98644.78
2022-08-21T07:03:28.114Z,98651.56
2022-08-21T07:06:29.612Z,98645.22
2022-08-21T07:09:35.363Z,98638.88
2022-08-21T07:12:36.825Z,98643.94
2022-08-21T07:15:38.180Z,98648.03
2022-08-21T07:18:39.526Z,98646.84
2022-08-21T07:21:40.887Z,98637.78
2022-08-21T07:24:42.249Z,98638.38
2022-08-21T07:27:43.595Z,98638.06
2022-08-21T07:30:45.088Z,98635.97
2022-08-21T07:33:46.452Z,98631.13
2022-08-21T07:36:48.047Z,98637.72
2022-08-21T07:39:52.058Z,98631.09
2022-08-21T07:42:54.089Z,98642.84
2022-08-21T07:45:55.672Z,98642.22
2022-08-21T07:48:57.022Z,98640.56
2022-08-21T07:51:58.507Z,98646.88
2022-08-21T07:55:02.835Z,98642.75
2022-08-21T07:58:07.681Z,98644.75
2022-08-21T08:01:09.055Z,98639.31
2022-08-21T08:04:10.486Z,98642.03
2022-08-21T08:07:11.849Z,98632.31
2022-08-21T08:10:13.212Z,98624.22
2022-08-21T08:13:14.557Z,98620.78
2022-08-21T08:16:16.033Z,98613.00
2022-08-21T08:19:17.395Z,98613.44
2022-08-21T08:22:20.299Z,98615.53
2022-08-21T08:25:21.744Z,98615.06
2022-08-21T08:28:23.068Z,98611.47
2022-08-21T08:31:24.791Z,98606.16
2022-08-21T08:34:26.192Z,98598.34
2022-08-21T08:37:29.478Z,98597.16
2022-08-21T08:40:56.586Z,98591.63
2022-08-21T08:44:02.492Z,98593.25
2022-08-21T08:47:03.925Z,98584.50
2022-08-21T08:50:22.439Z,98592.56
2022-08-21T08:53:31.349Z,98584.41
2022-08-21T08:56:33.454Z,98583.84
2022-08-21T08:59:41.702Z,98577.03
2022-08-21T09:02:45.613Z,98553.06
2022-08-21T09:05:48.312Z,98552.00
2022-08-21T09:08:57.714Z,98546.50
2022-08-21T09:12:04.772Z,98553.72
2022-08-21T09:15:13.510Z,98541.38
2022-08-21T09:18:14.883Z,98522.59
2022-08-21T09:21:18.757Z,98518.13
2022-08-21T09:24:29.352Z,98525.47
2022-08-21T09:27:30.703Z,98535.53
2022-08-21T09:30:33.041Z,98522.91
2022-08-21T09:33:34.387Z,98533.53
2022-08-21T09:36:45.884Z,98518.75
2022-08-21T09:39:48.939Z,98511.28
2022-08-21T09:43:26.880Z,98507.69
2022-08-21T09:46:28.823Z,98522.44
2022-08-21T09:49:30.760Z,98500.53
2022-08-21T09:52:32.122Z,98516.16
2022-08-21T09:55:53.375Z,98503.75
2022-08-21T09:58:54.708Z,98502.34
2022-08-21T10:01:56.679Z,98494.31
2022-08-21T10:04:59.527Z,98496.31
2022-08-21T10:08:01.465Z,98478.38
2022-08-21T10:11:10.059Z,98487.75
2022-08-21T10:14:11.353Z,98489.50
2022-08-21T10:17:12.691Z,98481.00
2022-08-21T10:20:24.644Z,98473.50
2022-08-21T10:23:44.921Z,98475.38
2022-08-21T10:26:53.660Z,98450.84
2022-08-21T10:29:57.261Z,98460.38
2022-08-21T10:33:17.354Z,98465.63
2022-08-21T10:36:18.704Z,98473.06
2022-08-21T10:39:35.479Z,98469.59
2022-08-21T10:42:56.631Z,98454.91
2022-08-21T10:46:00.797Z,98467.00
2022-08-21T10:49:08.204Z,98463.25
2022-08-21T10:52:09.460Z,98464.97
2022-08-21T10:55:15.578Z,98455.22
2022-08-21T10:58:22.298Z,98468.16
2022-08-21T11:01:25.745Z,98473.38
2022-08-21T11:04:35.962Z,98467.13
2022-08-21T11:07:53.884Z,98476.91
2022-08-21T11:11:00.485Z,98465.59
2022-08-21T11:14:05.699Z,98459.22
2022-08-21T11:17:12.056Z,98446.13
2022-08-21T11:20:15.204Z,98447.25
2022-08-21T11:23:26.627Z,98435.63
2022-08-21T11:26:32.405Z,98426.44
2022-08-21T11:29:37.721Z,98442.16
2022-08-21T11:32:48.043Z,98444.91
2022-08-21T11:35:52.358Z,98439.94
2022-08-21T11:39:13.806Z,98429.25
2022-08-21T11:42:15.159Z,98438.53
2022-08-21T11:45:22.667Z,98430.50
2022-08-21T11:48:33.420Z,98412.16
2022-08-21T11:51:37.608Z,98405.66
2022-08-21T11:54:44.722Z,98415.78
2022-08-21T11:57:49.108Z,98404.63
2022-08-21T12:00:55.277Z,98412.28
2022-08-21T12:03:58.948Z,98401.28
2022-08-21T12:07:11.090Z,98397.84
2022-08-21T12:10:13.589Z,98418.03
2022-08-21T12:13:36.645Z,98387.31
2022-08-21T12:16:43.051Z,98379.59
2022-08-21T12:19:44.547Z,98386.16
2022-08-21T12:22:50.473Z,98373.06
2022-08-21T12:26:01.328Z,98373.66
2022-08-21T12:29:06.646Z,98371.28
2022-08-21T12:32:11.013Z,98371.09
2022-08-21T12:35:24.752Z,98376.19
2022-08-21T12:38:30.702Z,98374.41
2022-08-21T12:41:33.465Z,98376.31
2022-08-21T12:44:44.905Z,98365.19
2022-08-21T12:47:48.201Z,98373.19
2022-08-21T12:50:50.911Z,98368.78
2022-08-21T12:53:56.041Z,98364.81
2022-08-21T12:57:01.402Z,98375.31
2022-08-21T13:00:05.285Z,98371.28
2022-08-21T13:03:06.637Z,98362.59
2022-08-21T13:06:09.043Z,98364.38
2022-08-21T13:09:17.143Z,98362.13
2022-08-21T13:12:18.659Z,98363.63
2022-08-21T13:15:23.600Z,98370.41
2022-08-21T13:18:26.694Z,98356.97
2022-08-21T13:21:29.561Z,98358.22
2022-08-21T13:24:46.192Z,98352.09
2022-08-21T13:27:58.441Z,98341.56
2022-08-21T13:31:02.430Z,98338.09
2022-08-21T13:34:03.774Z,98335.59
2022-08-21T13:37:05.887Z,98330.88
2022-08-21T13:40:08.831Z,98335.13
2022-08-21T13:43:21.961Z,98328.25
2022-08-21T13:46:23.408Z,98336.13
2022-08-21T13:49:27.534Z,98325.16
2022-08-21T13:52:29.955Z,98312.13
2022-08-21T13:55:38.649Z,98310.72
2022-08-21T13:58:43.867Z,98302.19
2022-08-21T14:01:58.135Z,98314.88
2022-08-21T14:05:00.174Z,98299.13
2022-08-21T14:08:03.947Z,98294.41
2022-08-21T14:11:05.709Z,98309.72
2022-08-21T14:14:14.629Z,98290.81
2022-08-21T14:17:33.589Z,98293.25
2022-08-21T14:20:35.606Z,98308.75
2022-08-21T14:23:37.023Z,98298.38
2022-08-21T14:26:44.889Z,98281.31
2022-08-21T14:29:46.534Z,98286.53
2022-08-21T14:32:48.106Z,98275.22
2022-08-21T14:35:49.576Z,98283.59
2022-08-21T14:38:50.907Z,98290.97
2022-08-21T14:41:52.253Z,98284.13
2022-08-21T14:44:53.627Z,98285.53
2022-08-21T14:47:55.383Z,98263.28
2022-08-21T14:51:00.496Z,98270.44
2022-08-21T14:54:02.195Z,98264.75
2022-08-21T14:57:07.445Z,98272.91
2022-08-21T15:00:09.325Z,98245.63
2022-08-21T15:03:12.556Z,98253.19
2022-08-21T15:06:13.935Z,98251.19
2022-08-21T15:09:15.295Z,98238.06
2022-08-21T15:12:16.712Z,98230.41
2022-08-21T15:15:18.068Z,98232.16
2022-08-21T15:18:25.096Z,98226.66
2022-08-21T15:21:26.448Z,98224.34
2022-08-21T15:24:27.817Z,98225.50
2022-08-21T15:27:29.324Z,98227.72
2022-08-21T15:30:31.141Z,98222.28
2022-08-21T15:33:32.724Z,98223.09
2022-08-21T15:36:34.093Z,98202.75
2022-08-21T15:39:37.252Z,98205.72
2022-08-21T15:42:39.811Z,98208.91
2022-08-21T15:45:41.159Z,98197.66
2022-08-21T15:48:42.522Z,98197.84
2022-08-21T15:51:43.945Z,98202.09
2022-08-21T15:54:45.312Z,98185.28
2022-08-21T15:57:57.509Z,98188.19
2022-08-21T16:01:00.629Z,98183.78
2022-08-21T16:04:02.122Z,98177.63
2022-08-21T16:07:08.981Z,98195.41
2022-08-21T16:10:10.943Z,98181.94
2022-08-21T16:13:14.616Z,98187.44
2022-08-21T16:16:17.225Z,98187.53
2022-08-21T16:19:19.314Z,98187.09
2022-08-21T16:22:20.683Z,98192.75
2022-08-21T16:25:22.022Z,98180.47
2022-08-21T16:28:24.644Z,98177.72
2022-08-21T16:31:26.096Z,98181.66
2022-08-21T16:34:28.511Z,98167.28
2022-08-21T16:37:29.928Z,98170.94
2022-08-21T16:40:31.346Z,98179.56
2022-08-21T16:43:32.685Z,98172.28
2022-08-21T16:46:35.058Z,98174.69
2022-08-21T16:49:36.667Z,98159.41
2022-08-21T16:52:38.027Z,98165.22
2022-08-21T16:55:39.461Z,98172.28
2022-08-21T16:58:42.658Z,98163.25
2022-08-21T17:01:44.299Z,98154.09
2022-08-21T17:04:45.687Z,98162.34
2022-08-21T17:07:47.103Z,98161.81
2022-08-21T17:10:48.963Z,98175.22
2022-08-21T17:13:50.328Z,98176.75
2022-08-21T17:16:52.278Z,98184.69
2022-08-21T17:19:53.645Z,98190.03
2022-08-21T17:22:55.081Z,98186.72
2022-08-21T17:25:57.289Z,98197.41
2022-08-21T17:28:58.668Z,98233.28
2022-08-21T17:32:00.104Z,98263.56
2022-08-21T17:35:02.306Z,98272.34
2022-08-21T17:38:03.670Z,98281.97
2022-08-21T17:41:06.294Z,98278.31
2022-08-21T17:44:09.395Z,98290.88
2022-08-21T17:47:10.811Z,98297.69
2022-08-21T17:50:12.582Z,98295.34
2022-08-21T17:53:13.967Z,98318.22
2022-08-21T17:56:15.421Z,98315.16
2022-08-21T17:59:17.244Z,98326.41
2022-08-21T18:02:19.527Z,98319.53
2022-08-21T18:05:21.594Z,98319.31
2022-08-21T18:08:23.149Z,98320.09
2022-08-21T18:11:25.720Z,98328.81
2022-08-21T18:14:28.103Z,98330.31
2022-08-21T18:17:32.557Z,98329.25
2022-08-21T18:20:33.917Z,98324.78
2022-08-21T18:23:43.883Z,98327.81
2022-08-21T18:26:45.934Z,98327.19
2022-08-21T18:29:47.852Z,98332.03
2022-08-21T18:32:49.418Z,98329.84
2022-08-21T18:35:50.768Z,98319.78
2022-08-21T18:38:53.262Z,98326.28
2022-08-21T18:41:54.644Z,98322.38
2022-08-21T18:44:56.949Z,98331.66
2022-08-21T18:47:58.383Z,98335.59
2022-08-21T18:50:59.745Z,98342.31
2022-08-21T18:54:01.261Z,98344.34
2022-08-21T18:57:05.657Z,98349.63
2022-08-21T19:00:11.850Z,98367.03
2022-08-21T19:03:21.066Z,98360.16
2022-08-21T19:06:25.391Z,98362.88
2022-08-21T19:09:26.780Z,98358.56
2022-08-21T19:12:29.637Z,98362.31
2022-08-21T19:15:32.366Z,98368.63
2022-08-21T19:18:35.446Z,98369.59
2022-08-21T19:21:37.299Z,98367.00
2022-08-21T19:24:40.141Z,98362.88
2022-08-21T19:27:51.613Z,98360.75
2022-08-21T19:34:25.929Z,98371.16
2022-08-21T19:37:27.813Z,98366.13
2022-08-21T19:40:29.207Z,98374.25
2022-08-21T19:43:31.755Z,98374.06
2022-08-21T19:49:56.637Z,98381.25
2022-08-21T19:52:58.086Z,98382.38
2022-08-21T19:55:59.597Z,98375.06
2022-08-21T19:59:02.261Z,98373.91
2022-08-21T20:02:06.843Z,98389.50
2022-08-21T20:05:08.636Z,98375.09
2022-08-21T20:08:11.785Z,98381.84
2022-08-21T20:11:26.410Z,98373.19
2022-08-21T20:14:30.842Z,98379.50
2022-08-21T20:17:32.270Z,98377.06
2022-08-21T20:20:33.610Z,98373.41
2022-08-21T20:23:36.581Z,98372.38
2022-08-21T20:26:49.382Z,98373.41
2022-08-21T20:29:51.381Z,98379.69
2022-08-21T20:32:52.805Z,98375.66
2022-08-21T20:35:54.181Z,98371.34
2022-08-21T20:38:55.754Z,98371.63
2022-08-21T20:41:57.331Z,98375.69
2022-08-21T20:44:58.691Z,98375.41
2022-08-21T20:48:14.119Z,98372.47
2022-08-21T20:51:21.291Z,98381.78
2022-08-21T20:54:31.101Z,98376.91
2022-08-21T20:57:33.779Z,98377.31
2022-08-21T21:00:36.852Z,98379.44
2022-08-21T21:03:45.199Z,98385.81
2022-08-21T21:06:50.166Z,98381.22
2022-08-21T21:09:52.424Z,98378.38
2022-08-21T21:12:54.531Z,98376.66
2022-08-21T21:15:56.639Z,98380.41
2022-08-21T21:19:00.532Z,98386.09
2022-08-21T21:22:04.887Z,98390.41
2022-08-21T21:25:13.756Z,98384.81
2022-08-21T21:28:20.302Z,98382.25
2022-08-21T21:31:21.987Z,98381.41
2022-08-21T21:34:24.099Z,98397.09
2022-08-21T21:37:37.979Z,98386.59
2022-08-21T21:40:51.088Z,98383.91
2022-08-21T21:44:01.566Z,98387.59
2022-08-21T21:47:21.603Z,98393.97
2022-08-21T21:50:33.439Z,98388.78
2022-08-21T21:53:41.842Z,98390.47
2022-08-21T21:56:55.267Z,98387.78
2022-08-21T22:00:05.042Z,98386.91
2022-08-21T22:03:15.764Z,98390.25
2022-08-21T22:06:32.424Z,98379.53
2022-08-21T22:09:34.265Z,98384.72
2022-08-21T22:16:00.964Z,98391.09
2022-08-21T22:19:06.579Z,98385.66
2022-08-21T22:22:13.555Z,98380.53
2022-08-21T22:25:17.991Z,98383.97
2022-08-21T22:28:20.360Z,98382.44
2022-08-21T22:31:28.198Z,98385.38
2022-08-21T22:34:31.922Z,98386.31
2022-08-21T22:37:38.020Z,98386.16
2022-08-21T22:40:39.362Z,98387.84
2022-08-21T22:43:54.255Z,98381.94
2022-08-21T22:46:56.254Z,98383.06
2022-08-21T22:50:04.316Z,98390.41
2022-08-21T22:53:07.043Z,98393.00
2022-08-21T22:56:08.541Z,98391.06
2022-08-21T22:59:22.230Z,98388.56
2022-08-21T23:02:42.279Z,98389.72
2022-08-21T23:05:44.221Z,98389.25
2022-08-21T23:08:46.260Z,98388.00
2022-08-21T23:11:51.597Z,98392.59
2022-08-21T23:14:54.945Z,98386.53
2022-08-21T23:18:05.688Z,98387.19
2022-08-21T23:21:26.053Z,98391.41
2022-08-21T23:24:49.909Z,98386.38
2022-08-21T23:27:57.717Z,98386.16
2022-08-21T23:31:17.872Z,98383.06
2022-08-21T23:34:20.051Z,98378.16
2022-08-21T23:37:49.282Z,98382.66
2022-08-21T23:40:56.206Z,98383.34
2022-08-21T23:44:07.219Z,98377.09
2022-08-21T23:47:15.843Z,98381.34
2022-08-21T23:50:25.139Z,98382.06
2022-08-21T23:53:35.689Z,98377.63
2022-08-21T23:56:46.311Z,98378.41
